sensor_id;sensor_type;location;lat;lon;timestamp;temperature;humidity
67820;DHT22;54618;52.018;5.576;2023-03-23T00:02:02;18.70;53.40
67820;DHT22;54618;52.018;5.576;2023-03-23T00:04:28;18.60;53.40
67820;DHT22;54618;52.018;5.576;2023-03-23T00:06:54;18.60;53.40
67820;DHT22;54618;52.018;5.576;2023-03-23T00:09:20;18.60;53.50
67820;DHT22;54618;52.018;5.576;2023-03-23T00:11:50;18.70;53.60
67820;DHT22;54618;52.018;5.576;2023-03-23T00:14:16;18.60;53.50
67820;DHT22;54618;52.018;5.576;2023-03-23T00:16:47;18.60;53.50
67820;DHT22;54618;52.018;5.576;2023-03-23T00:19:14;18.60;53.50
67820;DHT22;54618;52.018;5.576;2023-03-23T00:21:41;18.60;53.50
67820;DHT22;54618;52.018;5.576;2023-03-23T00:24:17;18.60;53.50
67820;DHT22;54618;52.018;5.576;2023-03-23T00:26:47;18.50;53.50
67820;DHT22;54618;52.018;5.576;2023-03-23T00:29:22;18.60;53.60
67820;DHT22;54618;52.018;5.576;2023-03-23T00:31:48;18.50;53.60
67820;DHT22;54618;52.018;5.576;2023-03-23T00:34:19;18.50;53.50
67820;DHT22;54618;52.018;5.576;2023-03-23T00:36:47;18.50;53.50
67820;DHT22;54618;52.018;5.576;2023-03-23T00:39:13;18.50;53.60
67820;DHT22;54618;52.018;5.576;2023-03-23T00:41:44;18.50;53.50
67820;DHT22;54618;52.018;5.576;2023-03-23T00:44:11;18.50;53.60
67820;DHT22;54618;52.018;5.576;2023-03-23T00:46:42;18.50;53.60
67820;DHT22;54618;52.018;5.576;2023-03-23T00:49:11;18.50;53.60
67820;DHT22;54618;52.018;5.576;2023-03-23T00:51:38;18.50;53.60
67820;DHT22;54618;52.018;5.576;2023-03-23T00:54:04;18.50;53.60
67820;DHT22;54618;52.018;5.576;2023-03-23T00:56:29;18.40;53.60
67820;DHT22;54618;52.018;5.576;2023-03-23T00:58:55;18.50;53.60
67820;DHT22;54618;52.018;5.576;2023-03-23T01:01:20;18.40;53.60
67820;DHT22;54618;52.018;5.576;2023-03-23T01:03:46;18.50;53.70
67820;DHT22;54618;52.018;5.576;2023-03-23T01:06:11;18.40;53.60
67820;DHT22;54618;52.018;5.576;2023-03-23T01:08:40;18.40;53.60
67820;DHT22;54618;52.018;5.576;2023-03-23T01:11:12;18.40;53.60
67820;DHT22;54618;52.018;5.576;2023-03-23T01:13:38;18.40;53.60
67820;DHT22;54618;52.018;5.576;2023-03-23T01:16:05;18.40;53.60
67820;DHT22;54618;52.018;5.576;2023-03-23T01:18:31;18.40;53.70
67820;DHT22;54618;52.018;5.576;2023-03-23T01:20:56;18.40;53.70
67820;DHT22;54618;52.018;5.576;2023-03-23T01:23:22;18.40;53.60
67820;DHT22;54618;52.018;5.576;2023-03-23T01:25:47;18.40;53.70
67820;DHT22;54618;52.018;5.576;2023-03-23T01:28:13;18.40;53.60
67820;DHT22;54618;52.018;5.576;2023-03-23T01:30:40;18.40;53.70
67820;DHT22;54618;52.018;5.576;2023-03-23T01:33:05;18.30;53.50
67820;DHT22;54618;52.018;5.576;2023-03-23T01:35:31;18.40;53.60
67820;DHT22;54618;52.018;5.576;2023-03-23T01:37:56;18.40;53.60
67820;DHT22;54618;52.018;5.576;2023-03-23T01:40:22;18.40;53.50
67820;DHT22;54618;52.018;5.576;2023-03-23T01:42:47;18.40;53.50
67820;DHT22;54618;52.018;5.576;2023-03-23T01:47:45;18.40;53.60
67820;DHT22;54618;52.018;5.576;2023-03-23T01:50:11;18.40;53.50
67820;DHT22;54618;52.018;5.576;2023-03-23T01:52:38;18.40;53.60
67820;DHT22;54618;52.018;5.576;2023-03-23T01:55:05;18.50;53.70
67820;DHT22;54618;52.018;5.576;2023-03-23T01:57:31;18.40;53.70
67820;DHT22;54618;52.018;5.576;2023-03-23T01:59:59;18.40;53.80
67820;DHT22;54618;52.018;5.576;2023-03-23T02:02:32;18.40;53.90
67820;DHT22;54618;52.018;5.576;2023-03-23T02:05:04;18.40;53.90
67820;DHT22;54618;52.018;5.576;2023-03-23T02:07:34;18.40;54.00
67820;DHT22;54618;52.018;5.576;2023-03-23T02:10:00;18.40;54.00
67820;DHT22;54618;52.018;5.576;2023-03-23T02:12:26;18.40;54.00
67820;DHT22;54618;52.018;5.576;2023-03-23T02:14:52;18.40;54.00
67820;DHT22;54618;52.018;5.576;2023-03-23T02:22:34;18.30;54.10
67820;DHT22;54618;52.018;5.576;2023-03-23T02:30:56;18.30;54.10
67820;DHT22;54618;52.018;5.576;2023-03-23T02:33:30;18.30;54.20
67820;DHT22;54618;52.018;5.576;2023-03-23T02:41:22;18.20;54.20
67820;DHT22;54618;52.018;5.576;2023-03-23T02:43:49;18.30;54.20
67820;DHT22;54618;52.018;5.576;2023-03-23T02:46:16;18.20;54.20
67820;DHT22;54618;52.018;5.576;2023-03-23T02:48:43;18.20;54.10
67820;DHT22;54618;52.018;5.576;2023-03-23T02:51:10;18.20;54.20
67820;DHT22;54618;52.018;5.576;2023-03-23T02:53:39;18.20;54.20
67820;DHT22;54618;52.018;5.576;2023-03-23T02:56:07;18.20;54.20
67820;DHT22;54618;52.018;5.576;2023-03-23T02:58:34;18.20;54.20
67820;DHT22;54618;52.018;5.576;2023-03-23T03:01:15;18.20;54.20
67820;DHT22;54618;52.018;5.576;2023-03-23T03:03:41;18.20;54.30
67820;DHT22;54618;52.018;5.576;2023-03-23T03:06:26;18.20;54.00
67820;DHT22;54618;52.018;5.576;2023-03-23T03:11:31;18.40;53.80
67820;DHT22;54618;52.018;5.576;2023-03-23T03:14:16;18.50;53.50
67820;DHT22;54618;52.018;5.576;2023-03-23T03:16:50;18.50;53.50
67820;DHT22;54618;52.018;5.576;2023-03-23T03:21:46;18.70;53.20
67820;DHT22;54618;52.018;5.576;2023-03-23T03:24:15;18.70;53.10
67820;DHT22;54618;52.018;5.576;2023-03-23T03:26:45;18.70;53.00
67820;DHT22;54618;52.018;5.576;2023-03-23T03:29:18;18.70;52.90
67820;DHT22;54618;52.018;5.576;2023-03-23T03:31:45;18.80;53.00
67820;DHT22;54618;52.018;5.576;2023-03-23T03:34:12;18.70;52.90
67820;DHT22;54618;52.018;5.576;2023-03-23T03:36:44;18.70;52.90
67820;DHT22;54618;52.018;5.576;2023-03-23T03:39:11;18.70;52.90
67820;DHT22;54618;52.018;5.576;2023-03-23T03:41:38;18.80;52.90
67820;DHT22;54618;52.018;5.576;2023-03-23T03:44:05;18.90;52.80
67820;DHT22;54618;52.018;5.576;2023-03-23T03:46:32;18.90;52.70
67820;DHT22;54618;52.018;5.576;2023-03-23T03:48:59;18.90;52.70
67820;DHT22;54618;52.018;5.576;2023-03-23T03:51:27;18.90;52.60
67820;DHT22;54618;52.018;5.576;2023-03-23T03:53:53;19.00;52.60
67820;DHT22;54618;52.018;5.576;2023-03-23T03:56:18;19.00;52.50
67820;DHT22;54618;52.018;5.576;2023-03-23T03:58:45;19.00;52.50
67820;DHT22;54618;52.018;5.576;2023-03-23T04:01:13;19.00;52.60
67820;DHT22;54618;52.018;5.576;2023-03-23T04:03:40;19.10;52.50
67820;DHT22;54618;52.018;5.576;2023-03-23T04:06:06;19.10;52.50
67820;DHT22;54618;52.018;5.576;2023-03-23T04:08:33;19.00;52.50
67820;DHT22;54618;52.018;5.576;2023-03-23T04:10:59;19.10;52.50
67820;DHT22;54618;52.018;5.576;2023-03-23T04:13:24;19.10;52.40
67820;DHT22;54618;52.018;5.576;2023-03-23T04:15:50;19.10;52.40
67820;DHT22;54618;52.018;5.576;2023-03-23T04:18:16;19.10;52.40
67820;DHT22;54618;52.018;5.576;2023-03-23T04:20:44;19.10;52.30
67820;DHT22;54618;52.018;5.576;2023-03-23T04:23:13;19.20;52.30
67820;DHT22;54618;52.018;5.576;2023-03-23T04:25:39;19.10;52.30
67820;DHT22;54618;52.018;5.576;2023-03-23T04:28:07;19.10;52.30
67820;DHT22;54618;52.018;5.576;2023-03-23T04:30:35;19.20;52.30
67820;DHT22;54618;52.018;5.576;2023-03-23T04:33:01;19.20;52.20
67820;DHT22;54618;52.018;5.576;2023-03-23T04:35:27;19.20;52.30
67820;DHT22;54618;52.018;5.576;2023-03-23T04:37:54;19.20;52.30
67820;DHT22;54618;52.018;5.576;2023-03-23T04:40:21;19.20;52.10
67820;DHT22;54618;52.018;5.576;2023-03-23T04:42:47;19.20;52.10
67820;DHT22;54618;52.018;5.576;2023-03-23T04:45:16;19.10;52.10
67820;DHT22;54618;52.018;5.576;2023-03-23T04:47:50;19.20;52.10
67820;DHT22;54618;52.018;5.576;2023-03-23T04:50:24;19.30;52.10
67820;DHT22;54618;52.018;5.576;2023-03-23T04:52:50;19.20;52.10
67820;DHT22;54618;52.018;5.576;2023-03-23T04:55:17;19.20;52.10
67820;DHT22;54618;52.018;5.576;2023-03-23T04:57:43;19.20;52.00
67820;DHT22;54618;52.018;5.576;2023-03-23T05:00:10;19.30;52.00
67820;DHT22;54618;52.018;5.576;2023-03-23T05:02:44;19.20;52.10
67820;DHT22;54618;52.018;5.576;2023-03-23T05:05:12;19.20;52.00
67820;DHT22;54618;52.018;5.576;2023-03-23T05:07:39;19.30;52.00
67820;DHT22;54618;52.018;5.576;2023-03-23T05:10:06;19.30;52.00
67820;DHT22;54618;52.018;5.576;2023-03-23T05:12:33;19.20;52.00
67820;DHT22;54618;52.018;5.576;2023-03-23T05:14:59;19.30;52.00
67820;DHT22;54618;52.018;5.576;2023-03-23T05:17:25;19.30;52.00
67820;DHT22;54618;52.018;5.576;2023-03-23T05:19:51;19.20;52.00
67820;DHT22;54618;52.018;5.576;2023-03-23T05:22:17;19.30;52.00
67820;DHT22;54618;52.018;5.576;2023-03-23T05:24:43;19.30;52.00
67820;DHT22;54618;52.018;5.576;2023-03-23T05:27:09;19.30;51.90
67820;DHT22;54618;52.018;5.576;2023-03-23T05:29:35;19.20;51.90
67820;DHT22;54618;52.018;5.576;2023-03-23T05:32:04;19.30;52.00
67820;DHT22;54618;52.018;5.576;2023-03-23T05:34:31;19.30;51.90
67820;DHT22;54618;52.018;5.576;2023-03-23T05:37:01;19.20;51.90
67820;DHT22;54618;52.018;5.576;2023-03-23T05:39:28;19.20;51.90
67820;DHT22;54618;52.018;5.576;2023-03-23T05:41:55;19.30;52.00
67820;DHT22;54618;52.018;5.576;2023-03-23T05:44:20;19.30;51.90
67820;DHT22;54618;52.018;5.576;2023-03-23T05:46:46;19.20;51.90
67820;DHT22;54618;52.018;5.576;2023-03-23T05:49:13;19.20;51.90
67820;DHT22;54618;52.018;5.576;2023-03-23T05:51:39;19.20;51.80
67820;DHT22;54618;52.018;5.576;2023-03-23T05:54:05;19.30;51.80
67820;DHT22;54618;52.018;5.576;2023-03-23T05:56:31;19.20;51.80
67820;DHT22;54618;52.018;5.576;2023-03-23T05:58:57;19.30;51.90
67820;DHT22;54618;52.018;5.576;2023-03-23T06:01:24;19.30;51.80
67820;DHT22;54618;52.018;5.576;2023-03-23T06:03:50;19.30;51.80
67820;DHT22;54618;52.018;5.576;2023-03-23T06:06:20;19.30;51.90
67820;DHT22;54618;52.018;5.576;2023-03-23T06:08:45;19.30;51.80
67820;DHT22;54618;52.018;5.576;2023-03-23T06:11:11;19.30;51.80
67820;DHT22;54618;52.018;5.576;2023-03-23T06:13:37;19.30;51.80
67820;DHT22;54618;52.018;5.576;2023-03-23T06:16:03;19.20;51.80
67820;DHT22;54618;52.018;5.576;2023-03-23T06:18:29;19.30;51.80
67820;DHT22;54618;52.018;5.576;2023-03-23T06:20:57;19.30;51.80
67820;DHT22;54618;52.018;5.576;2023-03-23T06:23:22;19.20;51.80
67820;DHT22;54618;52.018;5.576;2023-03-23T06:25:48;19.10;51.90
67820;DHT22;54618;52.018;5.576;2023-03-23T06:28:14;19.00;52.00
67820;DHT22;54618;52.018;5.576;2023-03-23T06:30:40;18.90;52.10
67820;DHT22;54618;52.018;5.576;2023-03-23T06:33:06;18.90;52.20
67820;DHT22;54618;52.018;5.576;2023-03-23T06:35:34;18.80;52.30
67820;DHT22;54618;52.018;5.576;2023-03-23T06:38:00;18.90;52.30
67820;DHT22;54618;52.018;5.576;2023-03-23T06:40:27;19.30;51.90
67820;DHT22;54618;52.018;5.576;2023-03-23T06:42:56;19.80;51.30
67820;DHT22;54618;52.018;5.576;2023-03-23T06:45:22;20.20;50.80
67820;DHT22;54618;52.018;5.576;2023-03-23T06:47:48;20.40;50.40
67820;DHT22;54618;52.018;5.576;2023-03-23T06:50:15;20.60;50.10
67820;DHT22;54618;52.018;5.576;2023-03-23T06:52:45;20.80;50.00
67820;DHT22;54618;52.018;5.576;2023-03-23T06:55:11;20.90;49.80
67820;DHT22;54618;52.018;5.576;2023-03-23T06:57:37;21.00;49.80
67820;DHT22;54618;52.018;5.576;2023-03-23T07:00:03;21.10;49.70
67820;DHT22;54618;52.018;5.576;2023-03-23T07:02:31;21.20;49.60
67820;DHT22;54618;52.018;5.576;2023-03-23T07:04:56;21.30;49.60
67820;DHT22;54618;52.018;5.576;2023-03-23T07:07:22;21.30;49.60
67820;DHT22;54618;52.018;5.576;2023-03-23T07:09:48;21.40;49.60
67820;DHT22;54618;52.018;5.576;2023-03-23T07:12:13;21.50;49.60
67820;DHT22;54618;52.018;5.576;2023-03-23T07:14:39;21.50;49.40
67820;DHT22;54618;52.018;5.576;2023-03-23T07:17:05;21.50;49.50
67820;DHT22;54618;52.018;5.576;2023-03-23T07:19:32;21.60;49.50
67820;DHT22;54618;52.018;5.576;2023-03-23T07:21:58;21.60;49.60
67820;DHT22;54618;52.018;5.576;2023-03-23T07:24:24;21.50;49.60
67820;DHT22;54618;52.018;5.576;2023-03-23T07:26:50;21.50;49.60
67820;DHT22;54618;52.018;5.576;2023-03-23T07:29:16;21.60;49.60
67820;DHT22;54618;52.018;5.576;2023-03-23T07:31:41;21.50;49.50
67820;DHT22;54618;52.018;5.576;2023-03-23T07:34:07;21.60;49.60
67820;DHT22;54618;52.018;5.576;2023-03-23T07:36:33;21.60;49.60
67820;DHT22;54618;52.018;5.576;2023-03-23T07:39:03;21.60;49.60
67820;DHT22;54618;52.018;5.576;2023-03-23T07:41:31;21.60;49.60
67820;DHT22;54618;52.018;5.576;2023-03-23T07:43:56;21.60;49.60
67820;DHT22;54618;52.018;5.576;2023-03-23T07:46:22;21.60;49.60
67820;DHT22;54618;52.018;5.576;2023-03-23T07:48:47;21.60;49.50
67820;DHT22;54618;52.018;5.576;2023-03-23T07:51:15;21.60;49.50
67820;DHT22;54618;52.018;5.576;2023-03-23T07:53:42;21.60;49.50
67820;DHT22;54618;52.018;5.576;2023-03-23T07:56:13;21.70;49.50
67820;DHT22;54618;52.018;5.576;2023-03-23T07:58:41;21.70;49.40
67820;DHT22;54618;52.018;5.576;2023-03-23T08:01:06;21.70;49.40
67820;DHT22;54618;52.018;5.576;2023-03-23T08:03:32;21.80;49.40
67820;DHT22;54618;52.018;5.576;2023-03-23T08:05:58;21.80;49.40
67820;DHT22;54618;52.018;5.576;2023-03-23T08:08:25;21.80;49.40
67820;DHT22;54618;52.018;5.576;2023-03-23T08:10:51;21.80;49.40
67820;DHT22;54618;52.018;5.576;2023-03-23T08:13:17;21.80;49.40
67820;DHT22;54618;52.018;5.576;2023-03-23T08:15:44;21.80;49.30
67820;DHT22;54618;52.018;5.576;2023-03-23T08:18:09;21.80;49.30
67820;DHT22;54618;52.018;5.576;2023-03-23T08:20:35;21.80;49.20
67820;DHT22;54618;52.018;5.576;2023-03-23T08:23:02;21.80;49.20
67820;DHT22;54618;52.018;5.576;2023-03-23T08:25:28;21.80;49.20
67820;DHT22;54618;52.018;5.576;2023-03-23T08:27:57;21.80;49.20
67820;DHT22;54618;52.018;5.576;2023-03-23T08:30:23;21.80;49.20
67820;DHT22;54618;52.018;5.576;2023-03-23T08:32:50;21.90;49.20
67820;DHT22;54618;52.018;5.576;2023-03-23T08:35:17;21.90;49.20
67820;DHT22;54618;52.018;5.576;2023-03-23T08:37:43;21.90;49.50
67820;DHT22;54618;52.018;5.576;2023-03-23T08:40:12;21.90;49.40
67820;DHT22;54618;52.018;5.576;2023-03-23T08:42:41;21.90;49.50
67820;DHT22;54618;52.018;5.576;2023-03-23T08:45:09;21.80;49.60
67820;DHT22;54618;52.018;5.576;2023-03-23T08:47:36;21.70;49.70
67820;DHT22;54618;52.018;5.576;2023-03-23T08:50:03;21.70;49.90
67820;DHT22;54618;52.018;5.576;2023-03-23T08:52:29;21.70;50.00
67820;DHT22;54618;52.018;5.576;2023-03-23T08:54:54;21.70;50.00
67820;DHT22;54618;52.018;5.576;2023-03-23T08:57:20;21.80;50.00
67820;DHT22;54618;52.018;5.576;2023-03-23T08:59:45;21.80;50.00
67820;DHT22;54618;52.018;5.576;2023-03-23T09:02:11;21.80;50.00
67820;DHT22;54618;52.018;5.576;2023-03-23T09:04:38;21.80;50.00
67820;DHT22;54618;52.018;5.576;2023-03-23T09:07:04;21.80;50.00
67820;DHT22;54618;52.018;5.576;2023-03-23T09:09:30;21.80;49.90
67820;DHT22;54618;52.018;5.576;2023-03-23T09:11:55;21.90;49.90
67820;DHT22;54618;52.018;5.576;2023-03-23T09:14:21;21.90;49.90
67820;DHT22;54618;52.018;5.576;2023-03-23T09:16:47;21.90;49.80
67820;DHT22;54618;52.018;5.576;2023-03-23T09:19:12;21.80;49.60
67820;DHT22;54618;52.018;5.576;2023-03-23T09:21:38;21.80;49.80
67820;DHT22;54618;52.018;5.576;2023-03-23T09:24:05;21.80;49.80
67820;DHT22;54618;52.018;5.576;2023-03-23T09:26:31;21.90;49.60
67820;DHT22;54618;52.018;5.576;2023-03-23T09:28:57;22.00;49.50
67820;DHT22;54618;52.018;5.576;2023-03-23T09:31:24;22.10;49.60
67820;DHT22;54618;52.018;5.576;2023-03-23T09:33:52;22.10;49.60
67820;DHT22;54618;52.018;5.576;2023-03-23T09:36:21;22.10;49.40
67820;DHT22;54618;52.018;5.576;2023-03-23T09:38:47;22.10;49.30
67820;DHT22;54618;52.018;5.576;2023-03-23T09:44:30;22.30;49.00
67820;DHT22;54618;52.018;5.576;2023-03-23T09:47:12;22.40;49.10
67820;DHT22;54618;52.018;5.576;2023-03-23T09:50:02;22.40;49.00
67820;DHT22;54618;52.018;5.576;2023-03-23T09:52:46;22.50;49.00
67820;DHT22;54618;52.018;5.576;2023-03-23T09:55:16;22.60;49.00
67820;DHT22;54618;52.018;5.576;2023-03-23T09:58:11;22.60;48.90
67820;DHT22;54618;52.018;5.576;2023-03-23T10:00:48;22.70;48.90
67820;DHT22;54618;52.018;5.576;2023-03-23T10:03:22;22.80;48.90
67820;DHT22;54618;52.018;5.576;2023-03-23T10:05:52;22.80;48.80
67820;DHT22;54618;52.018;5.576;2023-03-23T10:08:26;22.70;48.90
67820;DHT22;54618;52.018;5.576;2023-03-23T10:11:23;22.80;49.00
67820;DHT22;54618;52.018;5.576;2023-03-23T10:16:56;22.80;48.90
67820;DHT22;54618;52.018;5.576;2023-03-23T10:21:56;22.80;49.00
67820;DHT22;54618;52.018;5.576;2023-03-23T10:24:32;22.70;49.00
67820;DHT22;54618;52.018;5.576;2023-03-23T10:27:27;22.70;49.00
67820;DHT22;54618;52.018;5.576;2023-03-23T10:30:13;22.70;48.90
67820;DHT22;54618;52.018;5.576;2023-03-23T10:32:48;22.70;49.10
67820;DHT22;54618;52.018;5.576;2023-03-23T10:38:16;22.80;48.70
67820;DHT22;54618;52.018;5.576;2023-03-23T10:41:05;22.70;49.00
67820;DHT22;54618;52.018;5.576;2023-03-23T10:43:32;22.70;48.90
67820;DHT22;54618;52.018;5.576;2023-03-23T10:46:20;22.70;49.00
67820;DHT22;54618;52.018;5.576;2023-03-23T10:48:48;22.80;49.00
67820;DHT22;54618;52.018;5.576;2023-03-23T10:51:17;22.70;48.90
67820;DHT22;54618;52.018;5.576;2023-03-23T10:53:46;22.70;49.00
67820;DHT22;54618;52.018;5.576;2023-03-23T10:56:29;22.60;49.00
67820;DHT22;54618;52.018;5.576;2023-03-23T10:58:59;22.70;49.00
67820;DHT22;54618;52.018;5.576;2023-03-23T11:01:32;22.80;49.00
67820;DHT22;54618;52.018;5.576;2023-03-23T11:04:00;22.80;48.70
67820;DHT22;54618;52.018;5.576;2023-03-23T11:06:33;22.80;48.80
67820;DHT22;54618;52.018;5.576;2023-03-23T11:11:39;22.90;48.70
67820;DHT22;54618;52.018;5.576;2023-03-23T11:14:26;22.90;48.80
67820;DHT22;54618;52.018;5.576;2023-03-23T11:17:04;22.80;48.70
67820;DHT22;54618;52.018;5.576;2023-03-23T11:19:34;22.90;48.80
67820;DHT22;54618;52.018;5.576;2023-03-23T11:24:40;22.80;48.90
67820;DHT22;54618;52.018;5.576;2023-03-23T11:27:07;22.70;49.00
67820;DHT22;54618;52.018;5.576;2023-03-23T11:29:34;22.70;49.00
67820;DHT22;54618;52.018;5.576;2023-03-23T11:39:30;22.70;48.90
67820;DHT22;54618;52.018;5.576;2023-03-23T11:42:00;22.70;48.90
67820;DHT22;54618;52.018;5.576;2023-03-23T11:44:39;22.80;48.90
67820;DHT22;54618;52.018;5.576;2023-03-23T11:47:39;22.70;48.70
67820;DHT22;54618;52.018;5.576;2023-03-23T11:50:29;22.70;48.60
67820;DHT22;54618;52.018;5.576;2023-03-23T11:58:12;22.50;49.00
67820;DHT22;54618;52.018;5.576;2023-03-23T12:00:46;22.50;49.20
67820;DHT22;54618;52.018;5.576;2023-03-23T12:03:15;22.50;49.20
67820;DHT22;54618;52.018;5.576;2023-03-23T12:27:55;22.50;49.60
67820;DHT22;54618;52.018;5.576;2023-03-23T12:30:42;22.40;49.70
67820;DHT22;54618;52.018;5.576;2023-03-23T12:33:17;22.30;49.80
67820;DHT22;54618;52.018;5.576;2023-03-23T12:41:16;22.10;49.80
67820;DHT22;54618;52.018;5.576;2023-03-23T12:44:08;22.00;50.00
67820;DHT22;54618;52.018;5.576;2023-03-23T12:46:54;22.00;50.00
67820;DHT22;54618;52.018;5.576;2023-03-23T12:52:14;22.00;49.90
67820;DHT22;54618;52.018;5.576;2023-03-23T12:54:57;21.90;49.90
67820;DHT22;54618;52.018;5.576;2023-03-23T13:00:24;21.90;50.00
67820;DHT22;54618;52.018;5.576;2023-03-23T13:08:04;21.80;49.90
67820;DHT22;54618;52.018;5.576;2023-03-23T13:10:40;21.80;50.00
67820;DHT22;54618;52.018;5.576;2023-03-23T13:13:16;21.90;49.90
67820;DHT22;54618;52.018;5.576;2023-03-23T13:15:51;21.90;49.80
67820;DHT22;54618;52.018;5.576;2023-03-23T13:18:37;21.80;49.90
67820;DHT22;54618;52.018;5.576;2023-03-23T13:21:19;21.80;49.90
67820;DHT22;54618;52.018;5.576;2023-03-23T13:23:50;21.80;49.90
67820;DHT22;54618;52.018;5.576;2023-03-23T13:26:19;21.80;49.70
67820;DHT22;54618;52.018;5.576;2023-03-23T13:28:58;21.80;49.80
67820;DHT22;54618;52.018;5.576;2023-03-23T13:31:32;21.70;49.80
67820;DHT22;54618;52.018;5.576;2023-03-23T13:37:24;21.80;49.70
67820;DHT22;54618;52.018;5.576;2023-03-23T13:40:16;21.70;49.70
67820;DHT22;54618;52.018;5.576;2023-03-23T13:42:53;21.70;49.80
67820;DHT22;54618;52.018;5.576;2023-03-23T13:48:39;21.80;49.70
67820;DHT22;54618;52.018;5.576;2023-03-23T13:50:59;21.70;49.70
67820;DHT22;54618;52.018;5.576;2023-03-23T13:53:43;21.60;49.80
67820;DHT22;54618;52.018;5.576;2023-03-23T13:56:20;21.60;49.80
67820;DHT22;54618;52.018;5.576;2023-03-23T13:59:04;21.70;49.70
67820;DHT22;54618;52.018;5.576;2023-03-23T14:01:37;21.60;49.70
67820;DHT22;54618;52.018;5.576;2023-03-23T14:04:13;21.50;49.80
67820;DHT22;54618;52.018;5.576;2023-03-23T14:06:40;21.50;49.90
67820;DHT22;54618;52.018;5.576;2023-03-23T14:09:33;21.60;49.90
67820;DHT22;54618;52.018;5.576;2023-03-23T14:12:02;21.50;49.70
67820;DHT22;54618;52.018;5.576;2023-03-23T14:14:39;21.50;49.90
67820;DHT22;54618;52.018;5.576;2023-03-23T14:17:23;21.50;49.90
67820;DHT22;54618;52.018;5.576;2023-03-23T14:19:56;21.60;49.70
67820;DHT22;54618;52.018;5.576;2023-03-23T14:22:33;21.50;49.70
67820;DHT22;54618;52.018;5.576;2023-03-23T14:27:27;21.50;49.80
67820;DHT22;54618;52.018;5.576;2023-03-23T14:30:04;21.50;49.70
67820;DHT22;54618;52.018;5.576;2023-03-23T14:32:32;21.60;49.60
67820;DHT22;54618;52.018;5.576;2023-03-23T14:35:00;21.50;49.70
67820;DHT22;54618;52.018;5.576;2023-03-23T14:37:30;21.50;49.70
67820;DHT22;54618;52.018;5.576;2023-03-23T14:39:57;21.50;49.70
67820;DHT22;54618;52.018;5.576;2023-03-23T14:42:32;21.60;50.30
67820;DHT22;54618;52.018;5.576;2023-03-23T14:45:00;21.50;49.60
67820;DHT22;54618;52.018;5.576;2023-03-23T14:47:37;21.50;49.70
67820;DHT22;54618;52.018;5.576;2023-03-23T14:50:05;21.40;49.80
67820;DHT22;54618;52.018;5.576;2023-03-23T14:52:36;21.50;49.70
67820;DHT22;54618;52.018;5.576;2023-03-23T14:55:30;21.50;49.60
67820;DHT22;54618;52.018;5.576;2023-03-23T14:58:08;21.40;49.60
67820;DHT22;54618;52.018;5.576;2023-03-23T15:01:02;21.40;49.80
67820;DHT22;54618;52.018;5.576;2023-03-23T15:03:27;21.50;49.80
67820;DHT22;54618;52.018;5.576;2023-03-23T15:05:59;21.50;49.70
67820;DHT22;54618;52.018;5.576;2023-03-23T15:08:32;21.40;49.70
67820;DHT22;54618;52.018;5.576;2023-03-23T15:13:49;21.40;49.80
67820;DHT22;54618;52.018;5.576;2023-03-23T15:16:21;21.50;49.70
67820;DHT22;54618;52.018;5.576;2023-03-23T15:18:53;21.40;49.70
67820;DHT22;54618;52.018;5.576;2023-03-23T15:21:30;21.30;49.80
67820;DHT22;54618;52.018;5.576;2023-03-23T15:23:56;21.40;49.90
67820;DHT22;54618;52.018;5.576;2023-03-23T15:26:30;21.40;49.80
67820;DHT22;54618;52.018;5.576;2023-03-23T15:31:33;21.30;49.60
67820;DHT22;54618;52.018;5.576;2023-03-23T15:34:03;21.30;49.80
67820;DHT22;54618;52.018;5.576;2023-03-23T15:36:34;21.40;49.70
67820;DHT22;54618;52.018;5.576;2023-03-23T15:39:00;21.40;49.70
67820;DHT22;54618;52.018;5.576;2023-03-23T15:41:28;21.30;49.70
67820;DHT22;54618;52.018;5.576;2023-03-23T15:43:57;21.30;49.80
67820;DHT22;54618;52.018;5.576;2023-03-23T15:46:26;21.30;49.80
67820;DHT22;54618;52.018;5.576;2023-03-23T15:49:14;21.40;49.70
67820;DHT22;54618;52.018;5.576;2023-03-23T15:51:41;21.30;49.70
67820;DHT22;54618;52.018;5.576;2023-03-23T15:54:14;21.30;49.80
67820;DHT22;54618;52.018;5.576;2023-03-23T15:56:42;21.30;49.70
67820;DHT22;54618;52.018;5.576;2023-03-23T15:59:09;21.40;49.70
67820;DHT22;54618;52.018;5.576;2023-03-23T16:01:37;21.30;49.70
67820;DHT22;54618;52.018;5.576;2023-03-23T16:04:16;21.20;49.70
67820;DHT22;54618;52.018;5.576;2023-03-23T16:06:42;21.20;49.80
67820;DHT22;54618;52.018;5.576;2023-03-23T16:09:13;21.30;49.80
67820;DHT22;54618;52.018;5.576;2023-03-23T16:11:40;21.30;49.60
67820;DHT22;54618;52.018;5.576;2023-03-23T16:14:06;21.30;49.70
67820;DHT22;54618;52.018;5.576;2023-03-23T16:16:41;21.20;49.70
67820;DHT22;54618;52.018;5.576;2023-03-23T16:19:11;21.30;49.80
67820;DHT22;54618;52.018;5.576;2023-03-23T16:21:37;21.30;49.70
67820;DHT22;54618;52.018;5.576;2023-03-23T16:24:03;21.30;49.60
67820;DHT22;54618;52.018;5.576;2023-03-23T16:26:28;21.30;49.70
67820;DHT22;54618;52.018;5.576;2023-03-23T16:28:54;21.30;49.80
67820;DHT22;54618;52.018;5.576;2023-03-23T16:31:20;21.30;49.70
67820;DHT22;54618;52.018;5.576;2023-03-23T16:33:46;21.30;49.60
67820;DHT22;54618;52.018;5.576;2023-03-23T16:36:12;21.30;49.60
67820;DHT22;54618;52.018;5.576;2023-03-23T16:38:39;21.20;49.70
67820;DHT22;54618;52.018;5.576;2023-03-23T16:41:04;21.20;49.80
67820;DHT22;54618;52.018;5.576;2023-03-23T16:43:30;21.30;49.80
67820;DHT22;54618;52.018;5.576;2023-03-23T16:45:56;21.30;49.70
67820;DHT22;54618;52.018;5.576;2023-03-23T16:48:22;21.20;49.70
67820;DHT22;54618;52.018;5.576;2023-03-23T16:50:48;21.10;49.80
67820;DHT22;54618;52.018;5.576;2023-03-23T16:53:14;21.20;49.90
67820;DHT22;54618;52.018;5.576;2023-03-23T16:55:40;21.20;49.80
67820;DHT22;54618;52.018;5.576;2023-03-23T16:58:08;21.20;49.70
67820;DHT22;54618;52.018;5.576;2023-03-23T17:00:33;21.20;49.70
67820;DHT22;54618;52.018;5.576;2023-03-23T17:02:59;21.10;49.80
67820;DHT22;54618;52.018;5.576;2023-03-23T17:05:27;21.10;49.70
67820;DHT22;54618;52.018;5.576;2023-03-23T17:07:54;21.00;49.70
67820;DHT22;54618;52.018;5.576;2023-03-23T17:10:20;21.00;50.50
67820;DHT22;54618;52.018;5.576;2023-03-23T17:12:46;20.90;50.00
67820;DHT22;54618;52.018;5.576;2023-03-23T17:15:12;20.80;50.20
67820;DHT22;54618;52.018;5.576;2023-03-23T17:17:38;20.70;50.10
67820;DHT22;54618;52.018;5.576;2023-03-23T17:20:04;20.70;50.20
67820;DHT22;54618;52.018;5.576;2023-03-23T17:22:31;20.60;50.30
67820;DHT22;54618;52.018;5.576;2023-03-23T17:24:56;20.60;50.40
67820;DHT22;54618;52.018;5.576;2023-03-23T17:27:23;20.50;50.40
67820;DHT22;54618;52.018;5.576;2023-03-23T17:29:49;20.50;50.50
67820;DHT22;54618;52.018;5.576;2023-03-23T17:32:15;20.40;50.50